Time;durP1;ratioP1;P1;durP2;ratioP2;P2;SDS_P1;SDS_P2;PMS_P1;PMS_P2;Temp;Humidity;BMP_temperature;BMP_pressure;BME280_temperature;BME280_humidity;BME280_pressure;Samples;Min_cycle;Max_cycle;Signal;HPM_P1;HPM_P2
2021/12/30 00:00:47;;;;;;;14.40;11.57;;;;;;;8.80;100.00;99597.13;5094985;28;20743;-78
2021/12/30 00:03:13;;;;;;;13.50;12.30;;;;;;;8.79;100.00;99598.00;5095533;28;20206;-78
2021/12/30 00:05:40;;;;;;;13.53;12.33;;;;;;;8.84;100.00;99603.97;5095165;28;20246;-78
2021/12/30 00:08:08;;;;;;;14.57;13.17;;;;;;;8.84;100.00;99609.16;5087297;28;20211;-78
2021/12/30 00:10:35;;;;;;;17.50;15.27;;;;;;;8.85;100.00;99610.00;5095808;28;20578;-78
2021/12/30 00:13:02;;;;;;;16.80;15.10;;;;;;;8.87;100.00;99613.44;5095176;28;20206;-78
2021/12/30 00:15:28;;;;;;;24.33;18.37;;;;;;;8.94;100.00;99617.59;5095551;28;20230;-78
2021/12/30 00:17:57;;;;;;;22.33;19.20;;;;;;;9.02;100.00;99622.56;5095990;28;20203;-78
2021/12/30 00:20:23;;;;;;;27.27;20.77;;;;;;;9.08;100.00;99625.06;5094944;28;20273;-78
2021/12/30 00:22:50;;;;;;;25.97;21.10;;;;;;;9.16;100.00;99638.72;5094880;28;20211;-78
2021/12/30 00:25:16;;;;;;;27.37;21.63;;;;;;;9.19;100.00;99649.03;5095487;28;20227;-78
2021/12/30 00:27:43;;;;;;;30.33;21.87;;;;;;;9.22;100.00;99642.91;5094905;28;20713;-78
2021/12/30 00:30:12;;;;;;;30.17;22.07;;;;;;;9.26;100.00;99657.56;5095359;28;20205;-78
2021/12/30 00:32:38;;;;;;;31.27;21.90;;;;;;;9.28;100.00;99664.44;5094974;28;20682;-77
2021/12/30 00:35:07;;;;;;;26.77;20.57;;;;;;;9.32;100.00;99673.03;5093994;28;20661;-78
2021/12/30 00:37:34;;;;;;;24.43;19.53;;;;;;;9.36;100.00;99681.63;5086904;28;20200;-78
2021/12/30 00:40:00;;;;;;;23.37;19.47;;;;;;;9.35;100.00;99683.34;5094979;28;20226;-78
2021/12/30 00:42:26;;;;;;;24.93;19.27;;;;;;;9.39;100.00;99682.38;5094060;28;20215;-78
2021/12/30 00:44:53;;;;;;;26.60;18.67;;;;;;;9.45;100.00;99689.16;5094827;28;20223;-78
2021/12/30 00:47:19;;;;;;;21.23;18.57;;;;;;;9.49;100.00;99701.22;5094831;28;20633;-78
2021/12/30 00:49:45;;;;;;;22.67;18.97;;;;;;;9.53;100.00;99713.25;5095727;28;20233;-78
2021/12/30 00:52:13;;;;;;;24.83;18.73;;;;;;;9.56;100.00;99709.75;5094297;28;20623;-78
2021/12/30 00:54:39;;;;;;;23.00;18.87;;;;;;;9.60;100.00;99717.44;5094758;28;20680;-78
2021/12/30 00:57:06;;;;;;;23.67;19.53;;;;;;;9.64;100.00;99744.28;5094795;28;20203;-78
2021/12/30 00:59:32;;;;;;;20.87;18.77;;;;;;;9.67;100.00;99749.38;5095476;28;20227;-78
2021/12/30 01:01:58;;;;;;;25.13;18.67;;;;;;;9.66;100.00;99772.00;5095580;28;20742;-78
2021/12/30 01:04:25;;;;;;;32.97;17.90;;;;;;;9.66;100.00;99784.16;5095341;28;20211;-78
2021/12/30 01:06:52;;;;;;;25.37;18.30;;;;;;;9.62;100.00;99791.22;5087318;28;20204;-78
2021/12/30 01:09:20;;;;;;;20.30;17.87;;;;;;;9.65;100.00;99793.75;5093584;28;20699;-78
2021/12/30 01:11:46;;;;;;;23.93;17.37;;;;;;;9.62;100.00;99786.00;5095149;28;20207;-78
2021/12/30 01:14:18;;;;;;;24.67;18.57;;;;;;;9.62;100.00;99798.16;5094763;28;20272;-78
2021/12/30 01:16:48;;;;;;;21.87;17.70;;;;;;;9.67;100.00;99812.81;5095582;28;20195;-78
2021/12/30 01:19:42;;;;;;;22.13;16.27;;;;;;;9.69;100.00;99826.66;5094613;28;20264;-78
2021/12/30 01:22:09;;;;;;;23.73;15.47;;;;;;;9.70;100.00;99824.88;5094478;28;20207;-78
2021/12/30 01:24:38;;;;;;;22.30;16.33;;;;;;;9.69;100.00;99841.41;5094911;28;20719;-78
2021/12/30 01:27:04;;;;;;;20.77;16.13;;;;;;;9.71;100.00;99850.03;5094742;28;20211;-78
2021/12/30 01:29:31;;;;;;;21.07;16.93;;;;;;;9.73;100.00;99856.06;5094848;28;20268;-78
2021/12/30 01:31:57;;;;;;;23.43;16.37;;;;;;;9.74;100.00;99868.22;5094276;28;20261;-78
2021/12/30 01:34:26;;;;;;;19.67;15.93;;;;;;;9.79;100.00;99868.97;5094896;28;20203;-78
2021/12/30 01:36:53;;;;;;;19.53;14.27;;;;;;;9.85;100.00;99873.16;5086867;28;20307;-78
2021/12/30 01:39:20;;;;;;;23.03;15.90;;;;;;;9.85;100.00;99888.78;5093882;28;20252;-78
2021/12/30 01:41:48;;;;;;;21.90;14.60;;;;;;;9.89;100.00;99877.38;5094938;28;20215;-78
2021/12/30 01:44:15;;;;;;;20.67;16.73;;;;;;;9.88;100.00;99888.72;5094663;28;20208;-78
2021/12/30 01:46:44;;;;;;;20.80;14.03;;;;;;;9.90;100.00;99897.38;5095204;28;20206;-78
2021/12/30 01:49:13;;;;;;;20.03;13.47;;;;;;;9.87;100.00;99893.09;5094786;28;20204;-79
2021/12/30 01:51:41;;;;;;;24.17;15.40;;;;;;;9.92;100.00;99903.41;5094558;28;20250;-77
2021/12/30 01:54:08;;;;;;;17.27;14.37;;;;;;;9.99;100.00;99911.91;5095563;28;20355;-78
2021/12/30 01:56:34;;;;;;;15.60;14.00;;;;;;;9.99;100.00;99927.56;5098130;28;20706;-78
2021/12/30 01:59:03;;;;;;;19.43;14.90;;;;;;;9.99;100.00;99935.38;5098613;28;20248;-78
2021/12/30 02:01:31;;;;;;;24.20;14.97;;;;;;;9.97;100.00;99945.88;5097255;28;20212;-77
2021/12/30 02:03:57;;;;;;;21.40;14.77;;;;;;;9.98;100.00;99954.53;5097002;28;20260;-77
2021/12/30 02:06:24;;;;;;;22.83;15.97;;;;;;;9.96;100.00;99943.28;5092980;28;20235;-78
2021/12/30 02:08:51;;;;;;;19.57;14.57;;;;;;;9.98;100.00;99936.28;5092375;28;20263;-78
2021/12/30 02:11:18;;;;;;;17.60;13.90;;;;;;;9.95;100.00;99939.84;5097775;28;20207;-78
2021/12/30 02:13:46;;;;;;;18.37;14.43;;;;;;;9.97;100.00;99958.91;5096864;28;20261;-78
2021/12/30 02:16:15;;;;;;;15.37;13.77;;;;;;;9.96;100.00;99958.94;5096770;28;20235;-78
2021/12/30 02:18:42;;;;;;;23.60;14.73;;;;;;;9.90;100.00;99960.78;5096671;28;20598;-78
2021/12/30 02:21:10;;;;;;;20.17;14.67;;;;;;;9.91;100.00;99948.59;5096114;28;20742;-78
2021/12/30 02:23:38;;;;;;;23.70;14.67;;;;;;;9.95;100.00;99965.91;5096613;28;20833;-78
2021/12/30 02:26:06;;;;;;;23.47;15.80;;;;;;;9.95;100.00;99976.34;5097434;28;20221;-78
2021/12/30 02:28:36;;;;;;;18.20;14.70;;;;;;;9.89;100.00;99966.91;5096571;28;20207;-78
2021/12/30 02:31:08;;;;;;;23.50;14.77;;;;;;;9.91;100.00;99977.28;5097262;28;20203;-78
2021/12/30 02:33:34;;;;;;;17.63;14.17;;;;;;;9.98;100.00;99985.81;5096733;28;20624;-78
2021/12/30 02:36:01;;;;;;;23.20;12.63;;;;;;;10.01;100.00;100004.88;5096048;28;20668;-78
2021/12/30 02:38:28;;;;;;;14.67;12.40;;;;;;;10.04;100.00;100015.22;5084648;28;20266;-78
2021/12/30 02:40:58;;;;;;;12.40;11.07;;;;;;;10.06;100.00;100021.25;5076595;28;20229;-78
2021/12/30 02:43:26;;;;;;;20.37;12.00;;;;;;;10.04;100.00;100028.25;5076047;28;20211;-78
2021/12/30 02:45:53;;;;;;;18.77;12.03;;;;;;;10.05;100.00;100029.09;5076620;28;20228;-77
2021/12/30 02:48:22;;;;;;;23.77;10.83;;;;;;;10.08;100.00;100021.22;5076345;28;20204;-78
2021/12/30 02:50:51;;;;;;;18.50;11.40;;;;;;;10.05;100.00;100029.09;5075771;28;20208;-78
2021/12/30 02:53:19;;;;;;;27.33;11.00;;;;;;;10.07;100.00;100045.59;5075491;28;20205;-77
2021/12/30 02:55:46;;;;;;;17.27;11.27;;;;;;;10.08;100.00;100068.16;5076087;28;20702;-78
2021/12/30 02:58:13;;;;;;;18.13;10.20;;;;;;;9.98;100.00;100072.72;5076532;28;20211;-77
2021/12/30 03:00:41;;;;;;;15.27;9.57;;;;;;;9.98;100.00;100070.13;5076077;28;20377;-78
2021/12/30 03:03:08;;;;;;;19.87;10.77;;;;;;;10.03;100.00;100065.66;5075814;28;20208;-77
2021/12/30 03:05:34;;;;;;;19.57;8.50;;;;;;;10.11;100.00;100078.53;5083498;28;20281;-78
2021/12/30 03:08:01;;;;;;;11.30;8.40;;;;;;;10.11;100.00;100109.81;5087361;28;20208;-78
2021/12/30 03:10:28;;;;;;;22.90;9.33;;;;;;;10.13;100.00;100113.25;5095208;28;20639;-78
2021/12/30 03:12:58;;;;;;;27.17;9.70;;;;;;;10.07;100.00;100103.81;5095356;28;20703;-78
2021/12/30 03:15:26;;;;;;;16.87;9.33;;;;;;;9.96;100.00;100104.94;5095982;28;20725;-78
2021/12/30 03:17:53;;;;;;;14.73;9.27;;;;;;;9.94;100.00;100102.38;5096189;28;20210;-78
2021/12/30 03:20:19;;;;;;;14.23;8.50;;;;;;;10.01;100.00;100092.66;5095810;28;20226;-78
2021/12/30 03:22:46;;;;;;;12.40;8.40;;;;;;;10.00;100.00;100097.00;5096108;28;20208;-78
2021/12/30 03:25:15;;;;;;;16.17;8.80;;;;;;;10.05;100.00;100099.50;5096329;28;20258;-78
2021/12/30 03:27:42;;;;;;;20.53;9.93;;;;;;;9.89;100.00;100104.19;5096293;28;20200;-78
2021/12/30 03:30:14;;;;;;;21.47;8.90;;;;;;;9.82;100.00;100108.69;5095623;28;20609;-78
2021/12/30 03:32:40;;;;;;;24.97;9.40;;;;;;;9.76;100.00;100113.19;5096139;28;20265;-79
2021/12/30 03:35:08;;;;;;;20.07;9.23;;;;;;;9.83;100.00;100118.25;5095274;28;20224;-78
2021/12/30 03:37:35;;;;;;;25.47;10.00;;;;;;;9.69;100.00;100138.50;5087539;28;20786;-78
2021/12/30 03:40:02;;;;;;;27.10;8.97;;;;;;;9.64;100.00;100162.06;5095641;28;20280;-78
2021/12/30 03:42:28;;;;;;;17.60;8.20;;;;;;;9.71;100.00;100168.00;5087151;28;20204;-78
2021/12/30 03:44:57;;;;;;;25.87;8.77;;;;;;;9.80;100.00;100170.44;5087670;28;20223;-80
2021/12/30 03:47:25;;;;;;;21.40;8.93;;;;;;;9.79;100.00;100173.94;5094354;28;20200;-81
2021/12/30 03:49:52;;;;;;;26.50;8.10;;;;;;;9.77;100.00;100206.13;5095803;28;20682;-80
2021/12/30 03:52:24;;;;;;;20.50;7.90;;;;;;;9.73;100.00;100215.75;5095515;28;20686;-80
2021/12/30 03:54:51;;;;;;;21.07;7.30;;;;;;;9.80;100.00;100212.13;5096732;28;20268;-78
2021/12/30 03:57:17;;;;;;;20.70;8.00;;;;;;;9.78;100.00;100221.75;5096331;28;20196;-79
2021/12/30 03:59:44;;;;;;;22.87;9.43;;;;;;;9.82;100.00;100218.19;5096394;28;20616;-79
2021/12/30 04:02:10;;;;;;;26.17;10.67;;;;;;;9.81;100.00;100221.69;5095491;28;20199;-79
2021/12/30 04:04:38;;;;;;;22.43;10.83;;;;;;;9.88;100.00;100225.88;5096573;28;20215;-79
2021/12/30 04:07:05;;;;;;;25.30;9.57;;;;;;;9.89;100.00;100217.19;5089686;28;20196;-79
2021/12/30 04:09:31;;;;;;;23.37;8.40;;;;;;;9.99;100.00;100216.97;5084911;28;20222;-79
2021/12/30 04:11:58;;;;;;;25.20;10.37;;;;;;;9.99;100.00;100227.41;5086149;28;20222;-79
2021/12/30 04:14:26;;;;;;;23.03;10.10;;;;;;;9.99;100.00;100238.72;5085474;28;20200;-78
2021/12/30 04:16:52;;;;;;;26.10;9.63;;;;;;;9.97;100.00;100247.44;5084766;28;20291;-78
2021/12/30 04:19:19;;;;;;;28.20;9.43;;;;;;;9.97;100.00;100253.53;5086456;28;20202;-79
2021/12/30 04:21:47;;;;;;;20.73;11.03;;;;;;;10.02;100.00;100256.91;5085339;28;20200;-79
2021/12/30 04:24:13;;;;;;;23.23;8.97;;;;;;;10.01;99.66;100270.84;5085454;28;20225;-79
2021/12/30 04:26:40;;;;;;;26.77;9.10;;;;;;;10.02;98.88;100284.72;5088131;28;20200;-78
2021/12/30 04:29:06;;;;;;;25.27;9.50;;;;;;;10.07;98.08;100311.59;5085262;28;20195;-79
2021/12/30 04:31:33;;;;;;;17.60;8.67;;;;;;;10.03;97.49;100316.00;5086442;28;20200;-77
2021/12/30 04:34:00;;;;;;;20.53;8.23;;;;;;;10.01;97.48;100298.66;5087530;28;20199;-79
2021/12/30 04:36:26;;;;;;;20.27;7.43;;;;;;;9.98;97.37;100317.81;5088841;28;20219;-79
2021/12/30 04:38:54;;;;;;;18.80;7.83;;;;;;;9.89;97.34;100326.69;5093384;28;20203;-79
2021/12/30 04:41:20;;;;;;;25.03;8.87;;;;;;;9.89;97.60;100318.88;5095798;28;20703;-80
2021/12/30 04:43:47;;;;;;;26.63;8.33;;;;;;;9.89;97.50;100299.72;5095358;28;20206;-79
2021/12/30 04:46:13;;;;;;;20.87;7.67;;;;;;;9.87;97.79;100294.56;5095416;28;20267;-80
2021/12/30 04:48:39;;;;;;;16.70;7.33;;;;;;;9.80;98.03;100292.09;5095926;28;20665;-79
2021/12/30 04:51:06;;;;;;;19.27;8.00;;;;;;;9.74;97.95;100290.47;5095488;28;20221;-79
2021/12/30 04:53:32;;;;;;;25.17;8.23;;;;;;;9.81;98.40;100279.03;5095628;28;20198;-79
2021/12/30 04:56:00;;;;;;;18.90;8.13;;;;;;;9.73;98.34;100268.75;5095628;28;20276;-79
2021/12/30 04:58:26;;;;;;;22.63;8.77;;;;;;;9.68;98.46;100249.72;5095185;28;20931;-79
2021/12/30 05:00:53;;;;;;;25.83;9.40;;;;;;;9.62;98.84;100241.16;5094476;28;20223;-79
2021/12/30 05:03:21;;;;;;;22.67;8.80;;;;;;;9.61;98.84;100237.69;5095358;28;20204;-79
2021/12/30 05:05:49;;;;;;;21.73;7.30;;;;;;;9.65;98.66;100238.47;5118222;22;20227;-77
2021/12/30 05:08:17;;;;;;;17.30;8.33;;;;;;;9.74;98.90;100243.53;5099260;28;20294;-77
2021/12/30 05:10:44;;;;;;;17.70;7.03;;;;;;;9.69;98.75;100237.53;5098433;28;20200;-78
2021/12/30 05:13:12;;;;;;;20.27;7.50;;;;;;;9.74;98.65;100240.94;5104008;28;20224;-78
2021/12/30 05:15:40;;;;;;;16.17;6.80;;;;;;;9.77;98.26;100248.69;5097833;28;20593;-78
2021/12/30 05:18:09;;;;;;;12.20;6.87;;;;;;;9.74;97.73;100248.75;5078972;28;20200;-79
2021/12/30 05:20:35;;;;;;;14.43;6.07;;;;;;;9.66;97.49;100261.91;5077019;28;20220;-79
2021/12/30 05:23:02;;;;;;;10.00;5.77;;;;;;;9.67;97.30;100266.25;5073106;28;20266;-78
2021/12/30 05:25:28;;;;;;;15.57;7.10;;;;;;;9.60;97.92;100269.00;5073028;28;20221;-77
2021/12/30 05:27:55;;;;;;;17.60;6.40;;;;;;;9.61;97.99;100255.91;5073015;28;20204;-77
2021/12/30 05:30:25;;;;;;;16.27;7.80;;;;;;;9.65;97.98;100261.94;5075951;28;20189;-77
2021/12/30 05:32:54;;;;;;;11.30;6.33;;;;;;;9.59;98.43;100254.25;5076470;28;20234;-79
2021/12/30 05:35:21;;;;;;;17.70;7.87;;;;;;;9.56;98.21;100244.75;5077085;28;20262;-79
2021/12/30 05:37:48;;;;;;;17.07;8.37;;;;;;;9.50;98.83;100227.47;5076660;28;20266;-78
2021/12/30 05:40:17;;;;;;;23.20;10.17;;;;;;;9.56;99.32;100203.03;5079955;28;20287;-79
2021/12/30 05:42:45;;;;;;;21.53;11.33;;;;;;;9.64;99.28;100193.34;5082425;28;20265;-78
2021/12/30 05:45:14;;;;;;;27.43;10.87;;;;;;;9.71;99.40;100194.06;5083672;28;20208;-78
2021/12/30 05:47:42;;;;;;;16.57;7.17;;;;;;;9.71;98.99;100181.91;5082478;28;20211;-77
2021/12/30 05:50:10;;;;;;;17.43;8.97;;;;;;;9.69;98.65;100181.09;5078020;28;20249;-78
2021/12/30 05:52:37;;;;;;;23.77;11.40;;;;;;;9.66;98.90;100182.88;4374453;28;10000702;-77
2021/12/30 05:55:05;;;;;;;30.53;12.33;;;;;;;9.66;98.60;100175.91;5074372;28;20211;-76
2021/12/30 05:57:31;;;;;;;27.93;13.60;;;;;;;9.70;98.77;100174.97;5075878;28;20273;-78
2021/12/30 05:59:57;;;;;;;33.50;14.97;;;;;;;9.77;99.04;100185.28;5076438;28;20205;-77
2021/12/30 06:02:24;;;;;;;23.63;15.30;;;;;;;9.80;98.93;100198.25;5074903;28;20204;-77
2021/12/30 06:04:51;;;;;;;23.93;15.67;;;;;;;9.78;98.90;100200.03;5074476;28;20208;-76
2021/12/30 06:07:18;;;;;;;37.50;18.03;;;;;;;9.80;99.00;100204.31;5076010;28;20279;-78
2021/12/30 06:09:44;;;;;;;30.17;17.30;;;;;;;9.85;99.32;100215.53;5076389;28;20254;-77
2021/12/30 06:12:11;;;;;;;37.23;17.70;;;;;;;9.85;99.50;100212.91;5076500;28;20207;-78
2021/12/30 06:14:37;;;;;;;39.23;18.70;;;;;;;9.88;99.62;100206.78;5077488;28;20267;-77
2021/12/30 06:17:04;;;;;;;41.53;18.63;;;;;;;9.92;99.87;100217.09;5077427;28;20783;-77
2021/12/30 06:19:30;;;;;;;25.43;18.33;;;;;;;9.96;99.88;100222.28;5088574;28;20207;-78
2021/12/30 06:21:58;;;;;;;33.97;18.17;;;;;;;10.00;99.79;100226.53;5095915;28;20281;-77
2021/12/30 06:24:24;;;;;;;30.20;18.17;;;;;;;10.01;99.74;100216.09;5096264;28;20202;-78
2021/12/30 06:26:50;;;;;;;28.53;17.07;;;;;;;10.05;99.54;100229.88;5096758;28;20789;-78
2021/12/30 06:29:17;;;;;;;30.77;17.37;;;;;;;10.08;99.58;100230.69;5097024;28;20255;-78
2021/12/30 06:31:43;;;;;;;22.67;16.03;;;;;;;10.01;99.50;100229.13;5091549;28;20617;-78
2021/12/30 06:34:09;;;;;;;25.77;18.20;;;;;;;10.04;99.76;100213.41;5076540;28;20638;-78
2021/12/30 06:36:36;;;;;;;33.53;17.77;;;;;;;10.08;99.93;100215.03;5075953;28;20714;-78
2021/12/30 06:39:04;;;;;;;27.13;16.23;;;;;;;10.12;100.00;100197.59;5076558;28;20254;-78
2021/12/30 06:41:30;;;;;;;31.17;17.00;;;;;;;10.17;100.00;100200.09;5075357;28;20236;-78
2021/12/30 06:43:56;;;;;;;26.27;16.17;;;;;;;10.18;100.00;100191.41;5075969;28;20227;-76
2021/12/30 06:46:23;;;;;;;28.10;16.67;;;;;;;10.19;100.00;100169.63;5077300;28;20304;-79
2021/12/30 06:48:50;;;;;;;28.97;16.93;;;;;;;10.24;100.00;100163.41;5082057;28;20203;-77
2021/12/30 06:51:19;;;;;;;28.87;16.27;;;;;;;10.27;100.00;100146.84;5096053;28;20254;-78
2021/12/30 06:53:46;;;;;;;29.37;14.93;;;;;;;10.28;100.00;100144.19;5095960;28;20218;-78
2021/12/30 06:56:14;;;;;;;31.17;15.17;;;;;;;10.31;100.00;100165.03;5096364;28;20245;-77
2021/12/30 06:58:40;;;;;;;23.40;16.17;;;;;;;10.26;100.00;100161.63;5096524;28;20214;-78
2021/12/30 07:01:07;;;;;;;25.70;15.73;;;;;;;10.26;100.00;100151.19;5096141;28;20305;-78
2021/12/30 07:03:33;;;;;;;32.77;16.03;;;;;;;10.33;100.00;100154.56;5095801;28;20625;-77
2021/12/30 07:05:59;;;;;;;25.03;15.80;;;;;;;10.36;100.00;100169.28;5095697;28;20236;-78
2021/12/30 07:08:26;;;;;;;25.43;16.00;;;;;;;10.40;100.00;100165.72;5096585;28;20284;-78
2021/12/30 07:10:52;;;;;;;24.23;15.73;;;;;;;10.43;100.00;100163.91;5095727;28;20739;-78
2021/12/30 07:13:20;;;;;;;26.73;15.33;;;;;;;10.43;100.00;100157.84;5095893;28;20250;-78
2021/12/30 07:15:46;;;;;;;29.63;15.10;;;;;;;10.47;100.00;100159.47;5096008;28;20717;-77
2021/12/30 07:18:12;;;;;;;28.57;16.57;;;;;;;10.47;100.00;100162.94;5078449;28;20208;-77
2021/12/30 07:20:39;;;;;;;33.80;15.97;;;;;;;10.50;100.00;100159.41;5092892;28;20272;-77
2021/12/30 07:23:05;;;;;;;23.00;15.03;;;;;;;10.56;100.00;100155.78;5093329;28;20206;-77
2021/12/30 07:25:31;;;;;;;24.97;14.50;;;;;;;10.55;100.00;100148.88;5093239;28;20778;-77
2021/12/30 07:27:58;;;;;;;28.43;16.57;;;;;;;10.59;100.00;100150.50;5093198;28;20256;-75
2021/12/30 07:30:26;;;;;;;21.40;15.33;;;;;;;10.62;100.00;100132.16;5093280;28;20685;-77
2021/12/30 07:32:53;;;;;;;20.27;13.77;;;;;;;10.64;100.00;100123.38;5092036;28;20672;-77
2021/12/30 07:35:20;;;;;;;18.50;14.10;;;;;;;10.70;100.00;100119.75;5075687;28;20221;-78
2021/12/30 07:37:47;;;;;;;19.77;13.63;;;;;;;10.73;100.00;100119.69;5074906;28;20251;-78
2021/12/30 07:40:15;;;;;;;20.67;13.70;;;;;;;10.73;100.00;100110.09;5075068;28;20748;-78
2021/12/30 07:42:41;;;;;;;18.30;13.47;;;;;;;10.77;100.00;100117.88;5076047;28;20281;-78
2021/12/30 07:45:10;;;;;;;15.23;12.87;;;;;;;10.78;100.00;100128.25;5076577;28;20207;-79
2021/12/30 07:47:38;;;;;;;25.73;13.97;;;;;;;10.77;100.00;100131.78;5077342;28;20214;-79
2021/12/30 07:50:05;;;;;;;17.40;13.10;;;;;;;10.81;100.00;100153.47;5093581;28;20273;-79
2021/12/30 07:52:31;;;;;;;19.90;13.27;;;;;;;10.82;100.00;100158.66;5090159;28;20199;-78
2021/12/30 07:54:58;;;;;;;19.87;13.17;;;;;;;10.84;100.00;100149.03;5078027;28;20263;-78
2021/12/30 07:57:24;;;;;;;21.53;12.87;;;;;;;10.91;100.00;100147.09;5077736;28;20273;-78
2021/12/30 07:59:52;;;;;;;18.73;11.93;;;;;;;10.84;100.00;100142.91;5081927;28;20669;-78
2021/12/30 08:02:19;;;;;;;16.67;12.07;;;;;;;10.89;100.00;100121.03;5091044;28;20228;-78
2021/12/30 08:04:47;;;;;;;14.87;10.43;;;;;;;10.96;100.00;100120.88;5075333;28;20246;-78
2021/12/30 08:07:13;;;;;;;12.90;10.87;;;;;;;10.99;100.00;100126.88;5077154;28;20240;-78
2021/12/30 08:09:40;;;;;;;12.70;9.73;;;;;;;10.99;100.00;100126.03;5088887;28;20679;-78
2021/12/30 08:12:07;;;;;;;11.33;9.17;;;;;;;11.04;100.00;100131.97;5095419;28;20234;-79
2021/12/30 08:14:33;;;;;;;8.57;7.70;;;;;;;11.09;100.00;100130.09;5095286;28;20264;-78
2021/12/30 08:17:00;;;;;;;12.07;9.47;;;;;;;11.05;100.00;100118.03;5095564;28;20223;-78
2021/12/30 08:19:26;;;;;;;11.23;8.60;;;;;;;11.07;100.00;100116.22;5095462;28;20552;-81
2021/12/30 08:21:54;;;;;;;9.47;8.57;;;;;;;11.06;100.00;100111.88;5095045;28;20231;-78
2021/12/30 08:24:21;;;;;;;8.67;7.87;;;;;;;11.09;100.00;100102.22;5095490;28;20654;-78
2021/12/30 08:26:47;;;;;;;11.33;7.60;;;;;;;11.14;100.00;100102.13;5094855;28;20521;-78
2021/12/30 08:29:15;;;;;;;8.53;7.60;;;;;;;11.18;100.00;100102.88;5095069;28;20685;-78
2021/12/30 08:31:41;;;;;;;8.40;7.60;;;;;;;11.23;100.00;100111.47;5095443;28;20204;-79
2021/12/30 08:34:08;;;;;;;8.50;7.13;;;;;;;11.27;100.00;100106.09;5095657;28;20254;-79
2021/12/30 08:36:35;;;;;;;7.40;6.70;;;;;;;11.30;100.00;100108.63;5093527;28;20231;-79
2021/12/30 08:39:03;;;;;;;7.33;6.33;;;;;;;11.35;100.00;100108.50;5079189;28;20200;-78
2021/12/30 08:41:29;;;;;;;5.67;5.00;;;;;;;11.41;100.00;100120.56;5076776;28;20282;-78
2021/12/30 08:43:56;;;;;;;5.83;5.27;;;;;;;11.44;100.00;100117.88;5079331;28;20207;-79
2021/12/30 08:46:22;;;;;;;6.27;5.53;;;;;;;11.44;100.00;100104.78;5077376;28;20281;-79
2021/12/30 08:48:48;;;;;;;5.23;4.83;;;;;;;11.50;100.00;100107.22;5075153;28;20247;-79
2021/12/30 08:51:15;;;;;;;5.70;5.10;;;;;;;11.54;100.00;100114.09;5074905;28;20593;-79
2021/12/30 08:53:41;;;;;;;5.93;5.27;;;;;;;11.54;100.00;100108.88;5074633;28;20678;-79
2021/12/30 08:56:11;;;;;;;6.17;4.77;;;;;;;11.57;100.00;100113.13;5074676;28;20224;-80
2021/12/30 08:58:38;;;;;;;5.93;5.00;;;;;;;11.60;100.00;100124.38;5075037;28;20200;-79
2021/12/30 09:01:04;;;;;;;4.83;4.30;;;;;;;11.61;100.00;100136.53;5074494;28;20724;-79
2021/12/30 09:03:31;;;;;;;5.60;5.10;;;;;;;11.65;100.00;100142.53;5074859;28;20568;-78
2021/12/30 09:05:57;;;;;;;5.30;4.90;;;;;;;11.63;100.00;100137.34;5078927;28;20224;-79
2021/12/30 09:08:24;;;;;;;4.57;4.07;;;;;;;11.64;100.00;100139.06;5084923;28;20197;-79
2021/12/30 09:10:50;;;;;;;5.23;3.63;;;;;;;11.65;100.00;100139.91;5080349;28;20223;-79
2021/12/30 09:13:20;;;;;;;4.20;3.80;;;;;;;11.70;100.00;100136.28;5082363;28;20731;-78
2021/12/30 09:15:47;;;;;;;3.60;3.30;;;;;;;11.73;100.00;100135.31;5084022;28;20218;-79
2021/12/30 09:18:13;;;;;;;3.27;3.07;;;;;;;11.74;100.00;100131.81;5088075;28;20872;-79
2021/12/30 09:20:41;;;;;;;3.47;2.93;;;;;;;11.77;100.00;100131.72;5087084;28;20204;-78
2021/12/30 09:23:10;;;;;;;3.17;2.97;;;;;;;11.78;100.00;100107.28;5077356;28;20213;-79
2021/12/30 09:25:37;;;;;;;3.50;3.20;;;;;;;11.80;100.00;100115.94;5077813;28;20217;-79
2021/12/30 09:28:04;;;;;;;3.40;3.03;;;;;;;11.75;100.00;100099.53;5077555;28;20250;-77
2021/12/30 09:30:32;;;;;;;3.27;3.00;;;;;;;11.80;100.00;100092.41;5076919;28;20208;-77
2021/12/30 09:33:01;;;;;;;3.63;3.30;;;;;;;11.76;100.00;100089.94;5077587;28;20243;-79
2021/12/30 09:35:29;;;;;;;2.90;2.63;;;;;;;11.80;100.00;100081.94;5077484;28;20292;-79
2021/12/30 09:37:56;;;;;;;3.73;3.20;;;;;;;11.85;100.00;100094.88;5083988;28;20200;-79
2021/12/30 09:40:23;;;;;;;3.73;3.30;;;;;;;11.77;100.00;100084.66;5081371;28;20261;-79
2021/12/30 09:42:54;;;;;;;3.77;3.47;;;;;;;11.72;100.00;100090.03;5076792;28;20607;-78
2021/12/30 09:45:21;;;;;;;3.80;3.50;;;;;;;11.69;100.00;100070.94;5085045;28;20216;-79
2021/12/30 09:47:51;;;;;;;4.33;3.27;;;;;;;11.69;100.00;100074.44;5077987;28;20282;-78
2021/12/30 09:50:19;;;;;;;5.20;3.00;;;;;;;11.72;100.00;100070.88;5077120;28;20200;-79
2021/12/30 09:52:45;;;;;;;2.80;2.20;;;;;;;11.66;100.00;100056.22;5076759;28;20252;-79
2021/12/30 09:55:12;;;;;;;2.50;2.30;;;;;;;11.67;100.00;100051.84;5077587;28;20200;-79
2021/12/30 09:57:40;;;;;;;2.50;2.30;;;;;;;11.71;100.00;100051.72;5076814;28;20200;-78
2021/12/30 10:00:10;;;;;;;2.10;1.83;;;;;;;11.71;100.00;100054.34;5077306;28;20197;-79
2021/12/30 10:02:36;;;;;;;1.93;1.83;;;;;;;11.70;100.00;100059.59;5076734;28;20225;-79
2021/12/30 10:05:07;;;;;;;2.00;1.83;;;;;;;11.76;100.00;100053.34;5076577;28;20284;-79
2021/12/30 10:07:34;;;;;;;1.63;1.53;;;;;;;11.76;100.00;100054.19;5082486;28;20209;-79
2021/12/30 10:10:03;;;;;;;1.80;1.70;;;;;;;11.84;100.00;100057.41;5080952;28;20568;-78
2021/12/30 10:12:39;;;;;;;1.50;1.40;;;;;;;11.85;100.00;100067.00;5077074;28;20577;-79
2021/12/30 10:15:07;;;;;;;1.67;1.20;;;;;;;11.89;100.00;100073.88;5077475;28;20255;-78
2021/12/30 10:17:35;;;;;;;2.30;1.37;;;;;;;11.81;100.00;100059.25;5084519;28;20756;-79
2021/12/30 10:20:18;;;;;;;2.50;1.50;;;;;;;11.88;100.00;100068.66;5087239;28;20607;-78
2021/12/30 10:22:47;;;;;;;1.50;1.40;;;;;;;11.89;100.00;100057.31;5075493;28;20220;-78
2021/12/30 10:25:31;;;;;;;1.00;1.00;;;;;;;11.94;100.00;100065.03;5076862;28;20220;-79
2021/12/30 10:28:19;;;;;;;1.97;1.10;;;;;;;11.91;100.00;100061.59;5076034;28;20228;-79
2021/12/30 10:30:45;;;;;;;1.77;1.20;;;;;;;11.96;100.00;100065.84;5076837;28;20207;-79
2021/12/30 10:33:13;;;;;;;1.23;1.23;;;;;;;11.90;100.00;100059.88;5077258;28;20204;-78
2021/12/30 10:35:41;;;;;;;1.53;1.10;;;;;;;11.91;100.00;100040.69;5076003;28;20212;-79
2021/12/30 10:38:11;;;;;;;1.30;1.20;;;;;;;11.90;100.00;100033.72;5083211;28;20274;-78
2021/12/30 10:40:39;;;;;;;1.40;1.30;;;;;;;11.92;100.00;100034.53;5080178;28;20274;-79
2021/12/30 10:43:27;;;;;;;1.87;1.50;;;;;;;11.92;100.00;100031.91;5075560;28;20640;-78
2021/12/30 10:46:18;;;;;;;2.00;1.90;;;;;;;11.95;100.00;100027.50;5079761;28;20220;-78
2021/12/30 10:48:55;;;;;;;1.40;1.30;;;;;;;11.95;100.00;100025.72;5079256;28;20215;-79
2021/12/30 10:51:26;;;;;;;1.40;1.40;;;;;;;11.95;100.00;100030.09;5076663;28;20208;-79
2021/12/30 10:53:54;;;;;;;1.20;1.20;;;;;;;11.97;100.00;100013.47;5076532;28;20214;-79
2021/12/30 10:56:26;;;;;;;1.40;1.30;;;;;;;12.02;100.00;100019.41;5076077;28;20734;-78
2021/12/30 10:58:56;;;;;;;2.40;2.20;;;;;;;12.04;100.00;100019.38;5076058;28;20204;-79
2021/12/30 11:01:24;;;;;;;1.80;1.70;;;;;;;12.05;100.00;100029.78;5075427;28;20208;-78
2021/12/30 11:03:58;;;;;;;1.87;1.77;;;;;;;12.06;100.00;100025.41;5086085;28;20227;-78
2021/12/30 11:06:26;;;;;;;1.70;1.60;;;;;;;12.03;100.00;100020.25;5086182;28;20227;-78
2021/12/30 11:09:09;;;;;;;3.17;1.70;;;;;;;12.05;100.00;100006.25;5082837;28;20634;-79
2021/12/30 11:11:37;;;;;;;1.70;1.60;;;;;;;12.08;100.00;100002.66;5075728;28;20319;-79
2021/12/30 11:14:06;;;;;;;1.80;1.70;;;;;;;12.12;100.00;100002.50;5075701;28;20201;-79
2021/12/30 11:16:33;;;;;;;3.17;2.13;;;;;;;12.14;100.00;99999.84;5075772;28;20224;-79